sensor_id;sensor_type;location;lat;lon;timestamp;pressure;altitude;pressure_sealevel;temperature
19568;BMP280;9930;49.240;8.548;2022-07-10T00:00:14;101189.25;;;23.80
19568;BMP280;9930;49.240;8.548;2022-07-10T00:02:43;101192.72;;;23.77
19568;BMP280;9930;49.240;8.548;2022-07-10T00:05:11;101178.00;;;23.67
19568;BMP280;9930;49.240;8.548;2022-07-10T00:07:37;101184.94;;;23.71
19568;BMP280;9930;49.240;8.548;2022-07-10T00:10:06;101180.63;;;23.66
19568;BMP280;9930;49.240;8.548;2022-07-10T00:12:38;101188.41;;;23.70
19568;BMP280;9930;49.240;8.548;2022-07-10T00:15:06;101193.63;;;23.69
19568;BMP280;9930;49.240;8.548;2022-07-10T00:17:35;101197.13;;;23.66
19568;BMP280;9930;49.240;8.548;2022-07-10T00:20:06;101197.13;;;23.65
19568;BMP280;9930;49.240;8.548;2022-07-10T00:22:36;101189.34;;;23.55
19568;BMP280;9930;49.240;8.548;2022-07-10T00:25:08;101195.41;;;23.57
19568;BMP280;9930;49.240;8.548;2022-07-10T00:27:38;101186.72;;;23.52
19568;BMP280;9930;49.240;8.548;2022-07-10T00:30:06;101186.72;;;23.51
19568;BMP280;9930;49.240;8.548;2022-07-10T00:32:36;101176.34;;;23.42
19568;BMP280;9930;49.240;8.548;2022-07-10T00:35:06;101181.53;;;23.40
19568;BMP280;9930;49.240;8.548;2022-07-10T00:37:36;101178.09;;;23.37
19568;BMP280;9930;49.240;8.548;2022-07-10T00:40:06;101180.69;;;23.34
19568;BMP280;9930;49.240;8.548;2022-07-10T00:42:36;101194.56;;;23.36
19568;BMP280;9930;49.240;8.548;2022-07-10T00:45:01;101194.59;;;23.33
19568;BMP280;9930;49.240;8.548;2022-07-10T00:47:27;101181.59;;;23.23
19568;BMP280;9930;49.240;8.548;2022-07-10T00:49:55;101189.38;;;23.28
19568;BMP280;9930;49.240;8.548;2022-07-10T00:52:24;101177.25;;;23.21
19568;BMP280;9930;49.240;8.548;2022-07-10T00:54:50;101198.06;;;23.27
19568;BMP280;9930;49.240;8.548;2022-07-10T00:57:20;101182.47;;;23.19
19568;BMP280;9930;49.240;8.548;2022-07-10T00:59:51;101187.66;;;23.24
19568;BMP280;9930;49.240;8.548;2022-07-10T01:02:18;101188.53;;;23.23
19568;BMP280;9930;49.240;8.548;2022-07-10T01:04:45;101177.25;;;23.16
19568;BMP280;9930;49.240;8.548;2022-07-10T01:07:14;101187.66;;;23.18
19568;BMP280;9930;49.240;8.548;2022-07-10T01:09:42;101184.22;;;23.13
19568;BMP280;9930;49.240;8.548;2022-07-10T01:12:11;101187.66;;;23.16
19568;BMP280;9930;49.240;8.548;2022-07-10T01:14:37;101181.63;;;23.05
19568;BMP280;9930;49.240;8.548;2022-07-10T01:17:09;101187.69;;;23.06
19568;BMP280;9930;49.240;8.548;2022-07-10T01:19:36;101180.75;;;22.96
19568;BMP280;9930;49.240;8.548;2022-07-10T01:22:08;101198.97;;;23.00
19568;BMP280;9930;49.240;8.548;2022-07-10T01:24:35;101195.50;;;22.93
19568;BMP280;9930;49.240;8.548;2022-07-10T01:27:06;101188.56;;;22.80
19568;BMP280;9930;49.240;8.548;2022-07-10T01:29:40;101191.16;;;22.79
19568;BMP280;9930;49.240;8.548;2022-07-10T01:32:06;101180.75;;;22.68
19568;BMP280;9930;49.240;8.548;2022-07-10T01:34:35;101180.72;;;22.57
19568;BMP280;9930;49.240;8.548;2022-07-10T01:37:08;101199.81;;;22.61
19568;BMP280;9930;49.240;8.548;2022-07-10T01:39:35;101189.41;;;22.50
19568;BMP280;9930;49.240;8.548;2022-07-10T01:42:06;101204.13;;;22.51
19568;BMP280;9930;49.240;8.548;2022-07-10T01:44:36;101201.53;;;22.47
19568;BMP280;9930;49.240;8.548;2022-07-10T01:47:06;101217.13;;;22.42
19568;BMP280;9930;49.240;8.548;2022-07-10T01:49:35;101196.28;;;22.28
19568;BMP280;9930;49.240;8.548;2022-07-10T01:52:10;101217.09;;;22.33
19568;BMP280;9930;49.240;8.548;2022-07-10T01:54:37;101219.69;;;22.30
19568;BMP280;9930;49.240;8.548;2022-07-10T01:57:06;101214.47;;;22.22
19568;BMP280;9930;49.240;8.548;2022-07-10T01:59:35;101223.16;;;22.26
19568;BMP280;9930;49.240;8.548;2022-07-10T02:02:06;101216.19;;;22.19
19568;BMP280;9930;49.240;8.548;2022-07-10T02:04:35;101219.66;;;22.24
19568;BMP280;9930;49.240;8.548;2022-07-10T02:07:16;101224.00;;;22.28
19568;BMP280;9930;49.240;8.548;2022-07-10T02:09:43;101228.34;;;22.30
19568;BMP280;9930;49.240;8.548;2022-07-10T02:12:13;101230.09;;;22.33
19568;BMP280;9930;49.240;8.548;2022-07-10T02:14:40;101214.47;;;22.27
19568;BMP280;9930;49.240;8.548;2022-07-10T02:17:07;101224.91;;;22.35
19568;BMP280;9930;49.240;8.548;2022-07-10T02:19:36;101228.38;;;22.35
19568;BMP280;9930;49.240;8.548;2022-07-10T02:22:06;101223.16;;;22.35
19568;BMP280;9930;49.240;8.548;2022-07-10T02:24:35;101231.84;;;22.36
19568;BMP280;9930;49.240;8.548;2022-07-10T02:27:11;101234.44;;;22.34
19568;BMP280;9930;49.240;8.548;2022-07-10T02:29:39;101228.34;;;22.27
19568;BMP280;9930;49.240;8.548;2022-07-10T02:32:06;101238.75;;;22.30
19568;BMP280;9930;49.240;8.548;2022-07-10T02:34:36;101228.34;;;22.24
19568;BMP280;9930;49.240;8.548;2022-07-10T02:37:05;101232.66;;;22.22
19568;BMP280;9930;49.240;8.548;2022-07-10T02:39:35;101239.63;;;22.28
19568;BMP280;9930;49.240;8.548;2022-07-10T02:42:06;101225.72;;;22.20
19568;BMP280;9930;49.240;8.548;2022-07-10T02:44:36;101234.41;;;22.22
19568;BMP280;9930;49.240;8.548;2022-07-10T02:47:08;101233.53;;;22.20
19568;BMP280;9930;49.240;8.548;2022-07-10T02:49:35;101233.50;;;22.17
19568;BMP280;9930;49.240;8.548;2022-07-10T02:52:06;101231.78;;;22.16
19568;BMP280;9930;49.240;8.548;2022-07-10T02:54:38;101221.38;;;22.13
19568;BMP280;9930;49.240;8.548;2022-07-10T02:57:06;101219.63;;;22.12
19568;BMP280;9930;49.240;8.548;2022-07-10T02:59:35;101238.72;;;22.17
19568;BMP280;9930;49.240;8.548;2022-07-10T03:02:06;101228.28;;;22.09
19568;BMP280;9930;49.240;8.548;2022-07-10T03:04:36;101232.59;;;22.06
19568;BMP280;9930;49.240;8.548;2022-07-10T03:07:06;101230.00;;;22.04
19568;BMP280;9930;49.240;8.548;2022-07-10T03:09:35;101235.22;;;22.09
19568;BMP280;9930;49.240;8.548;2022-07-10T03:12:06;101230.88;;;22.08
19568;BMP280;9930;49.240;8.548;2022-07-10T03:14:37;101242.16;;;22.08
19568;BMP280;9930;49.240;8.548;2022-07-10T03:17:06;101236.94;;;22.02
19568;BMP280;9930;49.240;8.548;2022-07-10T03:19:37;101240.41;;;22.09
19568;BMP280;9930;49.240;8.548;2022-07-10T03:22:10;101241.28;;;22.09
19568;BMP280;9930;49.240;8.548;2022-07-10T03:24:36;101223.94;;;22.02
19568;BMP280;9930;49.240;8.548;2022-07-10T03:27:05;101241.28;;;22.09
19568;BMP280;9930;49.240;8.548;2022-07-10T03:29:35;101243.00;;;22.09
19568;BMP280;9930;49.240;8.548;2022-07-10T03:32:05;101236.88;;;21.97
19568;BMP280;9930;49.240;8.548;2022-07-10T03:34:34;101232.53;;;21.93
19568;BMP280;9930;49.240;8.548;2022-07-10T03:37:05;101240.31;;;21.93
19568;BMP280;9930;49.240;8.548;2022-07-10T03:39:36;101234.22;;;21.84
19568;BMP280;9930;49.240;8.548;2022-07-10T03:42:10;101236.78;;;21.78
19568;BMP280;9930;49.240;8.548;2022-07-10T03:44:36;101234.16;;;21.73
19568;BMP280;9930;49.240;8.548;2022-07-10T03:47:06;101249.75;;;21.73
19568;BMP280;9930;49.240;8.548;2022-07-10T03:49:35;101247.13;;;21.69
19568;BMP280;9930;49.240;8.548;2022-07-10T03:52:06;101236.69;;;21.61
19568;BMP280;9930;49.240;8.548;2022-07-10T03:54:36;101239.25;;;21.53
19568;BMP280;9930;49.240;8.548;2022-07-10T03:57:10;101250.47;;;21.49
19568;BMP280;9930;49.240;8.548;2022-07-10T03:59:55;101241.75;;;21.40
19568;BMP280;9930;49.240;8.548;2022-07-10T04:02:21;101243.50;;;21.42
19568;BMP280;9930;49.240;8.548;2022-07-10T04:04:46;101242.59;;;21.34
19568;BMP280;9930;49.240;8.548;2022-07-10T04:07:14;101242.56;;;21.31
19568;BMP280;9930;49.240;8.548;2022-07-10T04:09:41;101257.34;;;21.40
19568;BMP280;9930;49.240;8.548;2022-07-10T04:12:08;101255.63;;;21.43
19568;BMP280;9930;49.240;8.548;2022-07-10T04:14:38;101234.81;;;21.36
19568;BMP280;9930;49.240;8.548;2022-07-10T04:17:06;101236.53;;;21.33
19568;BMP280;9930;49.240;8.548;2022-07-10T04:19:34;101251.28;;;21.41
19568;BMP280;9930;49.240;8.548;2022-07-10T04:21:59;101249.53;;;21.37
19568;BMP280;9930;49.240;8.548;2022-07-10T04:24:25;101253.88;;;21.39
19568;BMP280;9930;49.240;8.548;2022-07-10T04:26:51;101245.19;;;21.36
19568;BMP280;9930;49.240;8.548;2022-07-10T04:29:19;101236.56;;;21.37
19568;BMP280;9930;49.240;8.548;2022-07-10T04:31:47;101253.91;;;21.47
19568;BMP280;9930;49.240;8.548;2022-07-10T04:34:13;101246.09;;;21.41
19568;BMP280;9930;49.240;8.548;2022-07-10T04:36:39;101259.06;;;21.41
19568;BMP280;9930;49.240;8.548;2022-07-10T04:39:06;101254.75;;;21.41
19568;BMP280;9930;49.240;8.548;2022-07-10T04:41:37;101260.84;;;21.46
19568;BMP280;9930;49.240;8.548;2022-07-10T04:44:06;101267.78;;;21.52
19568;BMP280;9930;49.240;8.548;2022-07-10T04:46:35;101266.94;;;21.51
19568;BMP280;9930;49.240;8.548;2022-07-10T04:49:04;101277.34;;;21.59
19568;BMP280;9930;49.240;8.548;2022-07-10T04:51:36;101257.47;;;21.61
19568;BMP280;9930;49.240;8.548;2022-07-10T04:54:06;101267.06;;;21.73
19568;BMP280;9930;49.240;8.548;2022-07-10T04:56:34;101246.25;;;21.68
19568;BMP280;9930;49.240;8.548;2022-07-10T04:58:59;101259.31;;;21.82
19568;BMP280;9930;49.240;8.548;2022-07-10T05:01:36;101260.22;;;21.93
19568;BMP280;9930;49.240;8.548;2022-07-10T05:04:06;101273.31;;;22.10
19568;BMP280;9930;49.240;8.548;2022-07-10T05:06:41;101269.88;;;22.14
19568;BMP280;9930;49.240;8.548;2022-07-10T05:09:09;101272.50;;;22.17
19568;BMP280;9930;49.240;8.548;2022-07-10T05:11:35;101271.69;;;22.36
19568;BMP280;9930;49.240;8.548;2022-07-10T05:14:06;101283.91;;;22.69
19568;BMP280;9930;49.240;8.548;2022-07-10T05:16:41;101269.22;;;23.08
19568;BMP280;9930;49.240;8.548;2022-07-10T05:19:07;101276.13;;;23.50
19568;BMP280;9930;49.240;8.548;2022-07-10T05:21:36;101272.59;;;23.87
19568;BMP280;9930;49.240;8.548;2022-07-10T05:24:06;101272.41;;;24.35
19568;BMP280;9930;49.240;8.548;2022-07-10T05:26:35;101282.56;;;24.80
19568;BMP280;9930;49.240;8.548;2022-07-10T05:29:05;101292.69;;;25.25
19568;BMP280;9930;49.240;8.548;2022-07-10T05:31:36;101281.22;;;25.41
19568;BMP280;9930;49.240;8.548;2022-07-10T05:34:08;101284.69;;;25.41
19568;BMP280;9930;49.240;8.548;2022-07-10T05:36:36;101285.69;;;25.30
19568;BMP280;9930;49.240;8.548;2022-07-10T05:39:05;101276.31;;;25.07
19568;BMP280;9930;49.240;8.548;2022-07-10T05:41:36;101276.47;;;24.83
19568;BMP280;9930;49.240;8.548;2022-07-10T05:44:05;101300.94;;;24.67
19568;BMP280;9930;49.240;8.548;2022-07-10T05:46:38;101295.81;;;24.48
19568;BMP280;9930;49.240;8.548;2022-07-10T05:49:06;101294.19;;;24.26
19568;BMP280;9930;49.240;8.548;2022-07-10T05:51:36;101302.91;;;24.13
19568;BMP280;9930;49.240;8.548;2022-07-10T05:54:08;101297.72;;;24.04
19568;BMP280;9930;49.240;8.548;2022-07-10T05:56:36;101311.66;;;23.94
19568;BMP280;9930;49.240;8.548;2022-07-10T05:59:06;101304.75;;;23.83
19568;BMP280;9930;49.240;8.548;2022-07-10T06:01:36;101323.00;;;23.82
19568;BMP280;9930;49.240;8.548;2022-07-10T06:04:06;101324.75;;;23.74
19568;BMP280;9930;49.240;8.548;2022-07-10T06:06:36;101310.88;;;23.58
19568;BMP280;9930;49.240;8.548;2022-07-10T06:09:06;101302.19;;;23.44
19568;BMP280;9930;49.240;8.548;2022-07-10T06:11:38;101314.34;;;23.54
19568;BMP280;9930;49.240;8.548;2022-07-10T06:14:07;101322.16;;;23.63
19568;BMP280;9930;49.240;8.548;2022-07-10T06:16:36;101323.88;;;23.78
19568;BMP280;9930;49.240;8.548;2022-07-10T06:19:06;101336.88;;;23.90
19568;BMP280;9930;49.240;8.548;2022-07-10T06:21:35;101323.81;;;23.98
19568;BMP280;9930;49.240;8.548;2022-07-10T06:24:00;101325.53;;;24.03
19568;BMP280;9930;49.240;8.548;2022-07-10T06:26:29;101319.44;;;24.07
19568;BMP280;9930;49.240;8.548;2022-07-10T06:28:57;101328.09;;;24.17
19568;BMP280;9930;49.240;8.548;2022-07-10T06:31:23;101322.88;;;24.20
19568;BMP280;9930;49.240;8.548;2022-07-10T06:33:53;101327.19;;;24.36
19568;BMP280;9930;49.240;8.548;2022-07-10T06:36:19;101328.84;;;24.52
19568;BMP280;9930;49.240;8.548;2022-07-10T06:38:47;101320.09;;;24.58
19568;BMP280;9930;49.240;8.548;2022-07-10T06:41:17;101319.22;;;24.61
19568;BMP280;9930;49.240;8.548;2022-07-10T06:43:43;101314.00;;;24.61
19568;BMP280;9930;49.240;8.548;2022-07-10T06:46:13;101317.47;;;24.66
19568;BMP280;9930;49.240;8.548;2022-07-10T06:48:39;101326.09;;;24.72
19568;BMP280;9930;49.240;8.548;2022-07-10T06:51:06;101313.06;;;24.72
19568;BMP280;9930;49.240;8.548;2022-07-10T06:53:36;101317.38;;;24.79
19568;BMP280;9930;49.240;8.548;2022-07-10T06:56:06;101330.31;;;25.01
19568;BMP280;9930;49.240;8.548;2022-07-10T06:58:36;101319.75;;;25.16
19568;BMP280;9930;49.240;8.548;2022-07-10T07:01:06;101323.03;;;25.38
19568;BMP280;9930;49.240;8.548;2022-07-10T07:03:42;101338.44;;;25.71
19568;BMP280;9930;49.240;8.548;2022-07-10T07:06:08;101330.50;;;25.79
19568;BMP280;9930;49.240;8.548;2022-07-10T07:08:36;101325.09;;;25.97
19568;BMP280;9930;49.240;8.548;2022-07-10T07:11:06;101316.19;;;26.10
19568;BMP280;9930;49.240;8.548;2022-07-10T07:13:35;101317.97;;;26.05
19568;BMP280;9930;49.240;8.548;2022-07-10T07:16:06;101333.56;;;26.14
19568;BMP280;9930;49.240;8.548;2022-07-10T07:18:36;101331.84;;;26.13
19568;BMP280;9930;49.240;8.548;2022-07-10T07:21:12;101326.63;;;26.12
19568;BMP280;9930;49.240;8.548;2022-07-10T07:23:59;101323.22;;;26.05
19568;BMP280;9930;49.240;8.548;2022-07-10T07:26:27;101331.09;;;26.02
19568;BMP280;9930;49.240;8.548;2022-07-10T07:28:52;101336.59;;;25.81
19568;BMP280;9930;49.240;8.548;2022-07-10T07:31:20;101322.84;;;25.59
19568;BMP280;9930;49.240;8.548;2022-07-10T07:33:46;101331.66;;;25.47
19568;BMP280;9930;49.240;8.548;2022-07-10T07:36:12;101321.34;;;25.32
19568;BMP280;9930;49.240;8.548;2022-07-10T07:38:40;101338.00;;;25.19
19568;BMP280;9930;49.240;8.548;2022-07-10T07:41:08;101333.78;;;25.01
19568;BMP280;9930;49.240;8.548;2022-07-10T07:43:34;101332.88;;;25.07
19568;BMP280;9930;49.240;8.548;2022-07-10T07:46:00;101330.22;;;25.13
19568;BMP280;9930;49.240;8.548;2022-07-10T07:48:25;101325.09;;;24.99
19568;BMP280;9930;49.240;8.548;2022-07-10T07:50:51;101336.50;;;24.80
19568;BMP280;9930;49.240;8.548;2022-07-10T07:53:19;101344.41;;;24.69
19568;BMP280;9930;49.240;8.548;2022-07-10T07:55:45;101332.25;;;24.61
19568;BMP280;9930;49.240;8.548;2022-07-10T07:58:10;101338.25;;;24.78
19568;BMP280;9930;49.240;8.548;2022-07-10T08:00:41;101341.59;;;25.03
19568;BMP280;9930;49.240;8.548;2022-07-10T08:03:07;101337.19;;;25.09
19568;BMP280;9930;49.240;8.548;2022-07-10T08:05:36;101323.38;;;24.92
19568;BMP280;9930;49.240;8.548;2022-07-10T08:08:08;101324.31;;;24.82
19568;BMP280;9930;49.240;8.548;2022-07-10T08:10:37;101326.00;;;24.89
19568;BMP280;9930;49.240;8.548;2022-07-10T08:13:06;101325.91;;;25.06
19568;BMP280;9930;49.240;8.548;2022-07-10T08:15:38;101324.97;;;25.14
19568;BMP280;9930;49.240;8.548;2022-07-10T08:18:06;101312.91;;;25.00
19568;BMP280;9930;49.240;8.548;2022-07-10T08:20:36;101316.41;;;24.97
19568;BMP280;9930;49.240;8.548;2022-07-10T08:23:06;101302.47;;;24.98
19568;BMP280;9930;49.240;8.548;2022-07-10T08:25:36;101308.41;;;25.20
19568;BMP280;9930;49.240;8.548;2022-07-10T08:28:06;101302.22;;;25.29
19568;BMP280;9930;49.240;8.548;2022-07-10T08:30:36;101316.91;;;25.40
19568;BMP280;9930;49.240;8.548;2022-07-10T08:33:06;101313.50;;;25.35
19568;BMP280;9930;49.240;8.548;2022-07-10T08:35:38;101308.25;;;25.35
19568;BMP280;9930;49.240;8.548;2022-07-10T08:38:08;101322.22;;;25.31
19568;BMP280;9930;49.240;8.548;2022-07-10T08:40:37;101310.13;;;25.21
19568;BMP280;9930;49.240;8.548;2022-07-10T08:43:09;101323.13;;;25.27
19568;BMP280;9930;49.240;8.548;2022-07-10T08:45:36;101320.44;;;25.36
19568;BMP280;9930;49.240;8.548;2022-07-10T08:48:09;101324.75;;;25.42
19568;BMP280;9930;49.240;8.548;2022-07-10T08:50:44;101322.16;;;25.40
19568;BMP280;9930;49.240;8.548;2022-07-10T08:53:16;101323.91;;;25.37
19568;BMP280;9930;49.240;8.548;2022-07-10T08:55:43;101313.53;;;25.31
19568;BMP280;9930;49.240;8.548;2022-07-10T08:58:12;101318.75;;;25.31
19568;BMP280;9930;49.240;8.548;2022-07-10T09:00:38;101316.16;;;25.28
19568;BMP280;9930;49.240;8.548;2022-07-10T09:03:10;101298.78;;;25.24
19568;BMP280;9930;49.240;8.548;2022-07-10T09:05:36;101296.97;;;25.33
19568;BMP280;9930;49.240;8.548;2022-07-10T09:08:27;101303.84;;;25.43
19568;BMP280;9930;49.240;8.548;2022-07-10T09:11:17;101305.53;;;25.49
19568;BMP280;9930;49.240;8.548;2022-07-10T09:13:55;101323.69;;;25.63
19568;BMP280;9930;49.240;8.548;2022-07-10T09:16:25;101312.34;;;25.62
19568;BMP280;9930;49.240;8.548;2022-07-10T09:18:52;101296.78;;;25.53
19568;BMP280;9930;49.240;8.548;2022-07-10T09:21:18;101295.06;;;25.49
19568;BMP280;9930;49.240;8.548;2022-07-10T09:23:46;101308.97;;;25.54
19568;BMP280;9930;49.240;8.548;2022-07-10T09:26:12;101295.88;;;25.56
19568;BMP280;9930;49.240;8.548;2022-07-10T09:28:37;101307.16;;;25.59
19568;BMP280;9930;49.240;8.548;2022-07-10T09:31:06;101309.78;;;25.59
19568;BMP280;9930;49.240;8.548;2022-07-10T09:33:35;101303.75;;;25.53
19568;BMP280;9930;49.240;8.548;2022-07-10T09:36:11;101301.13;;;25.53
19568;BMP280;9930;49.240;8.548;2022-07-10T09:41:20;101309.72;;;25.64
19568;BMP280;9930;49.240;8.548;2022-07-10T09:44:09;101309.72;;;25.67
19568;BMP280;9930;49.240;8.548;2022-07-10T09:46:37;101314.97;;;25.67
19568;BMP280;9930;49.240;8.548;2022-07-10T09:49:14;101307.22;;;25.53
19568;BMP280;9930;49.240;8.548;2022-07-10T09:51:45;101314.19;;;25.54
19568;BMP280;9930;49.240;8.548;2022-07-10T09:54:11;101321.16;;;25.52
19568;BMP280;9930;49.240;8.548;2022-07-10T09:56:46;101293.50;;;25.33
19568;BMP280;9930;49.240;8.548;2022-07-10T09:59:20;101312.53;;;25.45
19568;BMP280;9930;49.240;8.548;2022-07-10T10:01:49;101277.84;;;25.31
19568;BMP280;9930;49.240;8.548;2022-07-10T10:04:17;101298.56;;;25.48
19568;BMP280;9930;49.240;8.548;2022-07-10T10:06:50;101314.22;;;25.51
19568;BMP280;9930;49.240;8.548;2022-07-10T10:09:28;101309.88;;;25.50
19568;BMP280;9930;49.240;8.548;2022-07-10T10:11:59;101295.13;;;25.44
19568;BMP280;9930;49.240;8.548;2022-07-10T10:14:41;101312.34;;;25.67
19568;BMP280;9930;49.240;8.548;2022-07-10T10:17:11;101304.34;;;25.82
19568;BMP280;9930;49.240;8.548;2022-07-10T10:19:40;101286.88;;;25.87
19568;BMP280;9930;49.240;8.548;2022-07-10T10:22:25;101288.44;;;26.00
19568;BMP280;9930;49.240;8.548;2022-07-10T10:24:53;101280.63;;;25.99
19568;BMP280;9930;49.240;8.548;2022-07-10T10:27:20;101286.59;;;26.05
19568;BMP280;9930;49.240;8.548;2022-07-10T10:29:48;101285.72;;;26.06
19568;BMP280;9930;49.240;8.548;2022-07-10T10:32:18;101258.88;;;25.95
19568;BMP280;9930;49.240;8.548;2022-07-10T10:34:46;101277.94;;;26.02
19568;BMP280;9930;49.240;8.548;2022-07-10T10:37:40;101284.09;;;25.99
19568;BMP280;9930;49.240;8.548;2022-07-10T10:40:31;101282.38;;;25.98
19568;BMP280;9930;49.240;8.548;2022-07-10T10:43:23;101276.34;;;25.92
19568;BMP280;9930;49.240;8.548;2022-07-10T10:45:52;101265.06;;;25.88
19568;BMP280;9930;49.240;8.548;2022-07-10T10:48:19;101272.88;;;25.91
19568;BMP280;9930;49.240;8.548;2022-07-10T10:50:53;101272.81;;;25.96
19568;BMP280;9930;49.240;8.548;2022-07-10T10:53:39;101270.97;;;26.02
19568;BMP280;9930;49.240;8.548;2022-07-10T10:58:44;101269.22;;;26.03
19568;BMP280;9930;49.240;8.548;2022-07-10T11:01:23;101279.63;;;26.06
19568;BMP280;9930;49.240;8.548;2022-07-10T11:06:51;101268.28;;;26.07
19568;BMP280;9930;49.240;8.548;2022-07-10T11:09:36;101265.56;;;26.14
19568;BMP280;9930;49.240;8.548;2022-07-10T11:12:08;101266.34;;;26.23
19568;BMP280;9930;49.240;8.548;2022-07-10T11:14:40;101271.50;;;26.29
19568;BMP280;9930;49.240;8.548;2022-07-10T11:17:09;101272.25;;;26.40
19568;BMP280;9930;49.240;8.548;2022-07-10T11:19:36;101276.38;;;26.55
19568;BMP280;9930;49.240;8.548;2022-07-10T11:28:08;101257.56;;;26.87
19568;BMP280;9930;49.240;8.548;2022-07-10T11:30:52;101251.63;;;26.77
19568;BMP280;9930;49.240;8.548;2022-07-10T11:33:21;101261.19;;;26.78
19568;BMP280;9930;49.240;8.548;2022-07-10T11:35:52;101257.72;;;26.77
19568;BMP280;9930;49.240;8.548;2022-07-10T11:38:23;101252.63;;;26.68
19568;BMP280;9930;49.240;8.548;2022-07-10T11:40:50;101256.00;;;26.75
19568;BMP280;9930;49.240;8.548;2022-07-10T11:43:17;101249.84;;;26.79
19568;BMP280;9930;49.240;8.548;2022-07-10T11:45:43;101233.38;;;26.72
19568;BMP280;9930;49.240;8.548;2022-07-10T11:48:21;101249.69;;;26.88
19568;BMP280;9930;49.240;8.548;2022-07-10T11:50:48;101240.91;;;26.92
19568;BMP280;9930;49.240;8.548;2022-07-10T11:53:23;101251.25;;;27.01
19568;BMP280;9930;49.240;8.548;2022-07-10T11:55:52;101250.25;;;27.08
19568;BMP280;9930;49.240;8.548;2022-07-10T11:58:20;101239.81;;;27.07
19568;BMP280;9930;49.240;8.548;2022-07-10T12:01:06;101225.13;;;26.95
19568;BMP280;9930;49.240;8.548;2022-07-10T12:03:38;101237.19;;;27.07
19568;BMP280;9930;49.240;8.548;2022-07-10T12:06:09;101245.91;;;27.07
19568;BMP280;9930;49.240;8.548;2022-07-10T12:08:46;101231.97;;;27.05
19568;BMP280;9930;49.240;8.548;2022-07-10T12:11:17;101242.34;;;27.12
19568;BMP280;9930;49.240;8.548;2022-07-10T12:13:45;101228.53;;;27.02
19568;BMP280;9930;49.240;8.548;2022-07-10T12:16:13;101238.19;;;27.00
19568;BMP280;9930;49.240;8.548;2022-07-10T12:18:41;101248.56;;;27.04
19568;BMP280;9930;49.240;8.548;2022-07-10T12:21:11;101244.34;;;26.97
19568;BMP280;9930;49.240;8.548;2022-07-10T12:23:38;101254.69;;;27.03
19568;BMP280;9930;49.240;8.548;2022-07-10T12:26:10;101241.63;;;27.02
19568;BMP280;9930;49.240;8.548;2022-07-10T12:28:56;101231.25;;;26.94
19568;BMP280;9930;49.240;8.548;2022-07-10T12:31:27;101235.72;;;26.89
19568;BMP280;9930;49.240;8.548;2022-07-10T12:34:03;101228.03;;;26.78
19568;BMP280;9930;49.240;8.548;2022-07-10T12:36:47;101227.16;;;26.79
19568;BMP280;9930;49.240;8.548;2022-07-10T12:39:18;101235.84;;;26.82
19568;BMP280;9930;49.240;8.548;2022-07-10T12:42:05;101226.19;;;26.84
19568;BMP280;9930;49.240;8.548;2022-07-10T12:44:45;101230.53;;;26.86
19568;BMP280;9930;49.240;8.548;2022-07-10T12:47:17;101219.13;;;26.89
19568;BMP280;9930;49.240;8.548;2022-07-10T12:50:01;101228.56;;;27.00
19568;BMP280;9930;49.240;8.548;2022-07-10T12:52:38;101229.22;;;27.13
19568;BMP280;9930;49.240;8.548;2022-07-10T12:58:07;101231.88;;;27.12
19568;BMP280;9930;49.240;8.548;2022-07-10T13:00:46;101234.41;;;27.16
19568;BMP280;9930;49.240;8.548;2022-07-10T13:03:21;101229.09;;;27.19
19568;BMP280;9930;49.240;8.548;2022-07-10T13:05:55;101229.88;;;27.26
19568;BMP280;9930;49.240;8.548;2022-07-10T13:08:23;101224.50;;;27.32
19568;BMP280;9930;49.240;8.548;2022-07-10T13:10:58;101224.31;;;27.42
19568;BMP280;9930;49.240;8.548;2022-07-10T13:13:24;101222.38;;;27.52
19568;BMP280;9930;49.240;8.548;2022-07-10T13:15:51;101229.22;;;27.61
19568;BMP280;9930;49.240;8.548;2022-07-10T13:18:22;101225.63;;;27.66
19568;BMP280;9930;49.240;8.548;2022-07-10T13:20:52;101224.63;;;27.72
19568;BMP280;9930;49.240;8.548;2022-07-10T13:23:19;101217.47;;;27.80
19568;BMP280;9930;49.240;8.548;2022-07-10T13:25:53;101219.94;;;27.88
19568;BMP280;9930;49.240;8.548;2022-07-10T13:28:20;101218.94;;;27.93
19568;BMP280;9930;49.240;8.548;2022-07-10T13:30:47;101202.16;;;28.02
19568;BMP280;9930;49.240;8.548;2022-07-10T13:33:13;101203.59;;;28.15
19568;BMP280;9930;49.240;8.548;2022-07-10T13:35:39;101198.91;;;28.31
19568;BMP280;9930;49.240;8.548;2022-07-10T13:38:06;101215.09;;;28.48
19568;BMP280;9930;49.240;8.548;2022-07-10T13:40:38;101205.31;;;28.55
19568;BMP280;9930;49.240;8.548;2022-07-10T13:43:06;101218.19;;;28.65
19568;BMP280;9930;49.240;8.548;2022-07-10T13:45:37;101207.56;;;28.70
19568;BMP280;9930;49.240;8.548;2022-07-10T13:48:14;101210.13;;;28.73
19568;BMP280;9930;49.240;8.548;2022-07-10T13:50:42;101209.19;;;28.76
19568;BMP280;9930;49.240;8.548;2022-07-10T13:53:09;101210.00;;;28.78
19568;BMP280;9930;49.240;8.548;2022-07-10T13:55:36;101200.56;;;28.70
19568;BMP280;9930;49.240;8.548;2022-07-10T13:58:09;101206.81;;;28.65
19568;BMP280;9930;49.240;8.548;2022-07-10T14:00:36;101206.75;;;28.68
19568;BMP280;9930;49.240;8.548;2022-07-10T14:03:06;101209.38;;;28.68
19568;BMP280;9930;49.240;8.548;2022-07-10T14:05:33;101211.38;;;28.58
19568;BMP280;9930;49.240;8.548;2022-07-10T14:08:00;101211.47;;;28.54
19568;BMP280;9930;49.240;8.548;2022-07-10T14:10:26;101203.81;;;28.45
19568;BMP280;9930;49.240;8.548;2022-07-10T14:12:55;101206.56;;;28.40
19568;BMP280;9930;49.240;8.548;2022-07-10T14:15:25;101210.97;;;28.38
19568;BMP280;9930;49.240;8.548;2022-07-10T14:17:51;101208.44;;;28.35
19568;BMP280;9930;49.240;8.548;2022-07-10T14:20:19;101208.44;;;28.35
19568;BMP280;9930;49.240;8.548;2022-07-10T14:22:45;101213.66;;;28.35
19568;BMP280;9930;49.240;8.548;2022-07-10T14:25:12;101208.78;;;28.18
19568;BMP280;9930;49.240;8.548;2022-07-10T14:27:41;101202.78;;;28.13
19568;BMP280;9930;49.240;8.548;2022-07-10T14:30:10;101209.72;;;28.16
19568;BMP280;9930;49.240;8.548;2022-07-10T14:32:36;101212.28;;;28.17
19568;BMP280;9930;49.240;8.548;2022-07-10T14:35:09;101214.81;;;28.22
19568;BMP280;9930;49.240;8.548;2022-07-10T14:37:41;101205.28;;;28.18
19568;BMP280;9930;49.240;8.548;2022-07-10T14:40:09;101201.06;;;28.11
19568;BMP280;9930;49.240;8.548;2022-07-10T14:42:38;101209.06;;;28.06